Terminal Aerodrome Forecast
Issued by NWS

Home | Current Version | Previous Version | Text Only | Print | Product List | Glossary On
Versions: 1 2 3 4 5 6 7 8 9 10 11 12 13 14 15 16 17 18
000
FTUS42 KMLB 261700
TAFSUA
TAF
KSUA 261721Z 2618/2718 31010G17KT P6SM BKN010 OVC035
     FM270000 32007KT P6SM FEW010 BKN150
     FM270200 31004KT P6SM SCT150=

USA.gov is the U.S. government's official web portal to all federal, state and local government web resources and services.